sensor_id;sensor_type;location;lat;lon;timestamp;P1;durP1;ratioP1;P2;durP2;ratioP2
6414;SDS011;3240;48.790;9.210;2023-05-16T00:02:03;3.47;;;2.60;;
6414;SDS011;3240;48.790;9.210;2023-05-16T00:04:32;2.57;;;2.37;;
6414;SDS011;3240;48.790;9.210;2023-05-16T00:07:00;2.70;;;2.50;;
6414;SDS011;3240;48.790;9.210;2023-05-16T00:09:28;2.80;;;2.50;;
6414;SDS011;3240;48.790;9.210;2023-05-16T00:11:57;2.53;;;2.33;;
6414;SDS011;3240;48.790;9.210;2023-05-16T00:14:25;2.97;;;2.67;;
6414;SDS011;3240;48.790;9.210;2023-05-16T00:16:53;3.00;;;2.70;;
6414;SDS011;3240;48.790;9.210;2023-05-16T00:19:22;3.57;;;2.60;;
6414;SDS011;3240;48.790;9.210;2023-05-16T00:21:50;2.93;;;2.47;;
6414;SDS011;3240;48.790;9.210;2023-05-16T00:24:18;3.40;;;3.03;;
6414;SDS011;3240;48.790;9.210;2023-05-16T00:26:47;3.10;;;2.80;;
6414;SDS011;3240;48.790;9.210;2023-05-16T00:29:15;3.93;;;2.73;;
6414;SDS011;3240;48.790;9.210;2023-05-16T00:31:43;3.50;;;2.53;;
6414;SDS011;3240;48.790;9.210;2023-05-16T00:34:12;3.13;;;2.63;;
6414;SDS011;3240;48.790;9.210;2023-05-16T00:36:40;3.30;;;3.00;;
6414;SDS011;3240;48.790;9.210;2023-05-16T00:39:08;3.00;;;2.70;;
6414;SDS011;3240;48.790;9.210;2023-05-16T00:41:37;2.63;;;2.43;;
6414;SDS011;3240;48.790;9.210;2023-05-16T00:44:05;2.50;;;2.30;;
6414;SDS011;3240;48.790;9.210;2023-05-16T00:46:33;2.67;;;2.40;;
6414;SDS011;3240;48.790;9.210;2023-05-16T00:49:02;3.20;;;3.00;;
6414;SDS011;3240;48.790;9.210;2023-05-16T00:51:30;2.80;;;2.60;;
6414;SDS011;3240;48.790;9.210;2023-05-16T00:53:58;2.93;;;2.63;;
6414;SDS011;3240;48.790;9.210;2023-05-16T00:56:27;2.87;;;2.60;;
6414;SDS011;3240;48.790;9.210;2023-05-16T00:58:55;3.20;;;2.78;;
6414;SDS011;3240;48.790;9.210;2023-05-16T01:01:24;2.70;;;2.50;;
6414;SDS011;3240;48.790;9.210;2023-05-16T01:03:52;4.17;;;2.77;;
6414;SDS011;3240;48.790;9.210;2023-05-16T01:06:20;4.40;;;2.70;;
6414;SDS011;3240;48.790;9.210;2023-05-16T01:08:48;3.17;;;2.87;;
6414;SDS011;3240;48.790;9.210;2023-05-16T01:11:21;2.80;;;2.50;;
6414;SDS011;3240;48.790;9.210;2023-05-16T01:16:26;2.77;;;2.47;;
6414;SDS011;3240;48.790;9.210;2023-05-16T01:21:44;3.80;;;2.90;;
6414;SDS011;3240;48.790;9.210;2023-05-16T01:24:13;2.83;;;2.63;;
6414;SDS011;3240;48.790;9.210;2023-05-16T01:26:40;3.13;;;2.60;;
6414;SDS011;3240;48.790;9.210;2023-05-16T01:29:09;3.03;;;2.70;;
6414;SDS011;3240;48.790;9.210;2023-05-16T01:31:37;3.13;;;2.80;;
6414;SDS011;3240;48.790;9.210;2023-05-16T01:34:05;2.97;;;2.70;;
6414;SDS011;3240;48.790;9.210;2023-05-16T01:36:38;3.30;;;3.00;;
6414;SDS011;3240;48.790;9.210;2023-05-16T01:41:53;3.03;;;2.73;;
6414;SDS011;3240;48.790;9.210;2023-05-16T01:44:27;4.73;;;2.90;;
6414;SDS011;3240;48.790;9.210;2023-05-16T01:46:53;3.57;;;2.73;;
6414;SDS011;3240;48.790;9.210;2023-05-16T01:49:29;3.05;;;2.80;;
6414;SDS011;3240;48.790;9.210;2023-05-16T01:51:55;4.27;;;3.30;;
6414;SDS011;3240;48.790;9.210;2023-05-16T01:54:24;3.23;;;2.90;;
6414;SDS011;3240;48.790;9.210;2023-05-16T01:56:51;4.70;;;3.80;;
6414;SDS011;3240;48.790;9.210;2023-05-16T01:59:19;4.27;;;3.87;;
6414;SDS011;3240;48.790;9.210;2023-05-16T02:01:48;5.00;;;4.50;;
6414;SDS011;3240;48.790;9.210;2023-05-16T02:04:16;4.30;;;3.90;;
6414;SDS011;3240;48.790;9.210;2023-05-16T02:06:44;3.50;;;3.20;;
6414;SDS011;3240;48.790;9.210;2023-05-16T02:09:13;3.53;;;3.17;;
6414;SDS011;3240;48.790;9.210;2023-05-16T02:11:41;3.40;;;3.07;;
6414;SDS011;3240;48.790;9.210;2023-05-16T02:14:09;5.93;;;4.00;;
6414;SDS011;3240;48.790;9.210;2023-05-16T02:16:38;5.70;;;3.97;;
6414;SDS011;3240;48.790;9.210;2023-05-16T02:19:06;3.60;;;3.10;;
6414;SDS011;3240;48.790;9.210;2023-05-16T02:21:34;4.00;;;3.60;;
6414;SDS011;3240;48.790;9.210;2023-05-16T02:24:03;3.80;;;3.40;;
6414;SDS011;3240;48.790;9.210;2023-05-16T02:26:31;3.80;;;3.37;;
6414;SDS011;3240;48.790;9.210;2023-05-16T02:29:01;4.73;;;3.60;;
6414;SDS011;3240;48.790;9.210;2023-05-16T02:31:28;3.60;;;3.20;;
6414;SDS011;3240;48.790;9.210;2023-05-16T02:33:57;3.60;;;3.30;;
6414;SDS011;3240;48.790;9.210;2023-05-16T02:36:25;3.83;;;3.40;;
6414;SDS011;3240;48.790;9.210;2023-05-16T02:38:53;3.57;;;3.10;;
6414;SDS011;3240;48.790;9.210;2023-05-16T02:41:21;4.30;;;3.00;;
6414;SDS011;3240;48.790;9.210;2023-05-16T02:43:50;5.73;;;4.77;;
6414;SDS011;3240;48.790;9.210;2023-05-16T02:46:20;4.37;;;3.40;;
6414;SDS011;3240;48.790;9.210;2023-05-16T02:48:48;3.70;;;3.20;;
6414;SDS011;3240;48.790;9.210;2023-05-16T02:51:16;3.67;;;3.33;;
6414;SDS011;3240;48.790;9.210;2023-05-16T02:53:44;3.73;;;3.40;;
6414;SDS011;3240;48.790;9.210;2023-05-16T02:56:12;2.97;;;2.67;;
6414;SDS011;3240;48.790;9.210;2023-05-16T02:58:41;3.00;;;2.80;;
6414;SDS011;3240;48.790;9.210;2023-05-16T03:01:09;3.87;;;3.00;;
6414;SDS011;3240;48.790;9.210;2023-05-16T03:03:37;3.63;;;3.33;;
6414;SDS011;3240;48.790;9.210;2023-05-16T03:06:06;3.53;;;3.23;;
6414;SDS011;3240;48.790;9.210;2023-05-16T03:08:34;3.53;;;2.80;;
6414;SDS011;3240;48.790;9.210;2023-05-16T03:11:02;3.30;;;3.00;;
6414;SDS011;3240;48.790;9.210;2023-05-16T03:13:31;3.50;;;3.00;;
6414;SDS011;3240;48.790;9.210;2023-05-16T03:15:59;5.20;;;4.70;;
6414;SDS011;3240;48.790;9.210;2023-05-16T03:18:27;7.03;;;4.90;;
6414;SDS011;3240;48.790;9.210;2023-05-16T03:20:56;3.90;;;3.50;;
6414;SDS011;3240;48.790;9.210;2023-05-16T03:23:24;4.43;;;3.40;;
6414;SDS011;3240;48.790;9.210;2023-05-16T03:25:52;4.50;;;3.60;;
6414;SDS011;3240;48.790;9.210;2023-05-16T03:28:21;4.23;;;3.70;;
6414;SDS011;3240;48.790;9.210;2023-05-16T03:30:49;4.03;;;3.67;;
6414;SDS011;3240;48.790;9.210;2023-05-16T03:33:17;4.73;;;3.80;;
6414;SDS011;3240;48.790;9.210;2023-05-16T03:35:46;6.53;;;4.00;;
6414;SDS011;3240;48.790;9.210;2023-05-16T03:38:14;5.60;;;4.40;;
6414;SDS011;3240;48.790;9.210;2023-05-16T03:40:42;4.23;;;3.77;;
6414;SDS011;3240;48.790;9.210;2023-05-16T03:43:10;14.20;;;10.00;;
6414;SDS011;3240;48.790;9.210;2023-05-16T03:45:39;5.00;;;4.17;;
6414;SDS011;3240;48.790;9.210;2023-05-16T03:48:07;4.40;;;4.00;;
6414;SDS011;3240;48.790;9.210;2023-05-16T03:50:36;7.43;;;5.00;;
6414;SDS011;3240;48.790;9.210;2023-05-16T03:53:04;4.80;;;4.30;;
6414;SDS011;3240;48.790;9.210;2023-05-16T03:55:32;4.60;;;3.67;;
6414;SDS011;3240;48.790;9.210;2023-05-16T03:58:00;4.50;;;4.07;;
6414;SDS011;3240;48.790;9.210;2023-05-16T04:00:29;4.17;;;3.47;;
6414;SDS011;3240;48.790;9.210;2023-05-16T04:02:57;5.07;;;3.60;;
6414;SDS011;3240;48.790;9.210;2023-05-16T04:05:25;3.33;;;3.00;;
6414;SDS011;3240;48.790;9.210;2023-05-16T04:07:54;3.77;;;3.40;;
6414;SDS011;3240;48.790;9.210;2023-05-16T04:10:22;5.03;;;4.20;;
6414;SDS011;3240;48.790;9.210;2023-05-16T04:12:50;4.90;;;3.90;;
6414;SDS011;3240;48.790;9.210;2023-05-16T04:15:19;3.40;;;3.10;;
6414;SDS011;3240;48.790;9.210;2023-05-16T04:17:47;4.70;;;4.20;;
6414;SDS011;3240;48.790;9.210;2023-05-16T04:20:16;4.83;;;4.20;;
6414;SDS011;3240;48.790;9.210;2023-05-16T04:22:45;4.30;;;3.50;;
6414;SDS011;3240;48.790;9.210;2023-05-16T04:25:12;4.27;;;3.87;;
6414;SDS011;3240;48.790;9.210;2023-05-16T04:27:40;3.80;;;3.50;;
6414;SDS011;3240;48.790;9.210;2023-05-16T04:30:09;3.70;;;3.40;;
6414;SDS011;3240;48.790;9.210;2023-05-16T04:32:38;4.83;;;4.10;;
6414;SDS011;3240;48.790;9.210;2023-05-16T04:35:06;5.20;;;4.50;;
6414;SDS011;3240;48.790;9.210;2023-05-16T04:37:35;4.53;;;4.03;;
6414;SDS011;3240;48.790;9.210;2023-05-16T04:40:03;4.13;;;3.73;;
6414;SDS011;3240;48.790;9.210;2023-05-16T04:42:31;3.83;;;3.43;;
6414;SDS011;3240;48.790;9.210;2023-05-16T04:45:00;3.50;;;3.23;;
6414;SDS011;3240;48.790;9.210;2023-05-16T04:47:28;3.73;;;3.33;;
6414;SDS011;3240;48.790;9.210;2023-05-16T04:49:56;3.97;;;3.50;;
6414;SDS011;3240;48.790;9.210;2023-05-16T04:52:25;5.50;;;3.77;;
6414;SDS011;3240;48.790;9.210;2023-05-16T04:54:53;3.50;;;3.20;;
6414;SDS011;3240;48.790;9.210;2023-05-16T04:57:21;4.33;;;3.93;;
6414;SDS011;3240;48.790;9.210;2023-05-16T04:59:50;3.63;;;3.33;;
6414;SDS011;3240;48.790;9.210;2023-05-16T05:02:18;8.40;;;5.40;;
6414;SDS011;3240;48.790;9.210;2023-05-16T05:04:46;6.33;;;4.90;;
6414;SDS011;3240;48.790;9.210;2023-05-16T05:07:15;3.70;;;3.40;;
6414;SDS011;3240;48.790;9.210;2023-05-16T05:09:43;4.00;;;3.60;;
6414;SDS011;3240;48.790;9.210;2023-05-16T05:12:11;5.73;;;4.50;;
6414;SDS011;3240;48.790;9.210;2023-05-16T05:14:40;5.10;;;4.50;;
6414;SDS011;3240;48.790;9.210;2023-05-16T05:17:08;6.70;;;6.00;;
6414;SDS011;3240;48.790;9.210;2023-05-16T05:19:36;7.03;;;5.13;;
6414;SDS011;3240;48.790;9.210;2023-05-16T05:22:05;14.30;;;9.70;;
6414;SDS011;3240;48.790;9.210;2023-05-16T05:24:33;8.47;;;6.23;;
6414;SDS011;3240;48.790;9.210;2023-05-16T05:27:01;13.20;;;8.40;;
6414;SDS011;3240;48.790;9.210;2023-05-16T05:29:30;6.30;;;5.63;;
6414;SDS011;3240;48.790;9.210;2023-05-16T05:31:58;8.90;;;6.93;;
6414;SDS011;3240;48.790;9.210;2023-05-16T05:34:26;6.63;;;5.47;;
6414;SDS011;3240;48.790;9.210;2023-05-16T05:36:55;7.60;;;5.67;;
6414;SDS011;3240;48.790;9.210;2023-05-16T05:39:23;5.20;;;4.60;;
6414;SDS011;3240;48.790;9.210;2023-05-16T05:41:51;9.10;;;6.70;;
6414;SDS011;3240;48.790;9.210;2023-05-16T05:44:20;12.23;;;9.70;;
6414;SDS011;3240;48.790;9.210;2023-05-16T05:46:48;10.50;;;9.10;;
6414;SDS011;3240;48.790;9.210;2023-05-16T05:49:16;9.00;;;6.87;;
6414;SDS011;3240;48.790;9.210;2023-05-16T05:51:45;7.27;;;5.10;;
6414;SDS011;3240;48.790;9.210;2023-05-16T05:54:13;4.60;;;4.17;;
6414;SDS011;3240;48.790;9.210;2023-05-16T05:56:41;5.40;;;4.80;;
6414;SDS011;3240;48.790;9.210;2023-05-16T05:59:10;5.77;;;4.70;;
6414;SDS011;3240;48.790;9.210;2023-05-16T06:01:38;6.50;;;4.40;;
6414;SDS011;3240;48.790;9.210;2023-05-16T06:04:06;5.00;;;4.50;;
6414;SDS011;3240;48.790;9.210;2023-05-16T06:06:35;9.73;;;5.87;;
6414;SDS011;3240;48.790;9.210;2023-05-16T06:09:03;6.13;;;4.80;;
6414;SDS011;3240;48.790;9.210;2023-05-16T06:11:31;5.43;;;4.80;;
6414;SDS011;3240;48.790;9.210;2023-05-16T06:14:00;9.90;;;7.20;;
6414;SDS011;3240;48.790;9.210;2023-05-16T06:16:28;5.70;;;5.10;;
6414;SDS011;3240;48.790;9.210;2023-05-16T06:18:56;6.20;;;5.60;;
6414;SDS011;3240;48.790;9.210;2023-05-16T06:21:25;7.83;;;6.40;;
6414;SDS011;3240;48.790;9.210;2023-05-16T06:23:53;5.57;;;4.50;;
6414;SDS011;3240;48.790;9.210;2023-05-16T06:26:21;5.23;;;4.73;;
6414;SDS011;3240;48.790;9.210;2023-05-16T06:28:50;5.10;;;4.20;;
6414;SDS011;3240;48.790;9.210;2023-05-16T06:31:18;6.62;;;5.53;;
6414;SDS011;3240;48.790;9.210;2023-05-16T06:33:46;17.40;;;12.40;;
6414;SDS011;3240;48.790;9.210;2023-05-16T06:36:15;11.00;;;8.03;;
6414;SDS011;3240;48.790;9.210;2023-05-16T06:38:43;10.90;;;8.70;;
6414;SDS011;3240;48.790;9.210;2023-05-16T06:41:11;8.70;;;6.27;;
6414;SDS011;3240;48.790;9.210;2023-05-16T06:43:40;7.47;;;6.70;;
6414;SDS011;3240;48.790;9.210;2023-05-16T06:46:08;8.67;;;7.07;;
6414;SDS011;3240;48.790;9.210;2023-05-16T06:48:36;12.03;;;6.80;;
6414;SDS011;3240;48.790;9.210;2023-05-16T06:51:05;9.50;;;7.10;;
6414;SDS011;3240;48.790;9.210;2023-05-16T06:53:33;10.20;;;7.60;;
6414;SDS011;3240;48.790;9.210;2023-05-16T06:56:01;6.50;;;5.63;;
6414;SDS011;3240;48.790;9.210;2023-05-16T06:58:30;5.20;;;4.60;;
6414;SDS011;3240;48.790;9.210;2023-05-16T07:00:58;4.77;;;4.27;;
6414;SDS011;3240;48.790;9.210;2023-05-16T07:03:27;7.67;;;6.20;;
6414;SDS011;3240;48.790;9.210;2023-05-16T07:05:55;6.20;;;4.77;;
6414;SDS011;3240;48.790;9.210;2023-05-16T07:08:23;5.57;;;5.07;;
6414;SDS011;3240;48.790;9.210;2023-05-16T07:10:51;5.43;;;4.90;;
6414;SDS011;3240;48.790;9.210;2023-05-16T07:13:20;6.63;;;5.97;;
6414;SDS011;3240;48.790;9.210;2023-05-16T07:15:48;7.23;;;6.37;;
6414;SDS011;3240;48.790;9.210;2023-05-16T07:18:16;8.30;;;6.90;;
6414;SDS011;3240;48.790;9.210;2023-05-16T07:20:45;13.03;;;8.40;;
6414;SDS011;3240;48.790;9.210;2023-05-16T07:23:13;6.70;;;5.70;;
6414;SDS011;3240;48.790;9.210;2023-05-16T07:25:41;7.37;;;6.50;;
6414;SDS011;3240;48.790;9.210;2023-05-16T07:28:10;7.07;;;6.07;;
6414;SDS011;3240;48.790;9.210;2023-05-16T07:30:38;5.83;;;4.73;;
6414;SDS011;3240;48.790;9.210;2023-05-16T07:33:06;5.70;;;5.10;;
6414;SDS011;3240;48.790;9.210;2023-05-16T07:35:35;4.97;;;4.43;;
6414;SDS011;3240;48.790;9.210;2023-05-16T07:38:03;5.60;;;5.07;;
6414;SDS011;3240;48.790;9.210;2023-05-16T07:40:31;6.27;;;5.40;;
6414;SDS011;3240;48.790;9.210;2023-05-16T07:43:00;5.77;;;4.87;;
6414;SDS011;3240;48.790;9.210;2023-05-16T07:45:28;4.37;;;3.97;;
6414;SDS011;3240;48.790;9.210;2023-05-16T07:47:56;4.60;;;4.00;;
6414;SDS011;3240;48.790;9.210;2023-05-16T07:50:25;5.40;;;4.50;;
6414;SDS011;3240;48.790;9.210;2023-05-16T07:52:53;4.37;;;3.97;;
6414;SDS011;3240;48.790;9.210;2023-05-16T07:55:21;5.90;;;4.80;;
6414;SDS011;3240;48.790;9.210;2023-05-16T07:57:50;4.47;;;4.07;;
6414;SDS011;3240;48.790;9.210;2023-05-16T08:00:18;4.90;;;4.33;;
6414;SDS011;3240;48.790;9.210;2023-05-16T08:02:47;5.68;;;4.82;;
6414;SDS011;3240;48.790;9.210;2023-05-16T08:05:15;4.80;;;4.30;;
6414;SDS011;3240;48.790;9.210;2023-05-16T08:07:43;4.90;;;4.00;;
6414;SDS011;3240;48.790;9.210;2023-05-16T08:10:12;5.90;;;5.30;;
6414;SDS011;3240;48.790;9.210;2023-05-16T08:12:40;5.10;;;4.60;;
6414;SDS011;3240;48.790;9.210;2023-05-16T08:15:08;4.40;;;3.60;;
6414;SDS011;3240;48.790;9.210;2023-05-16T08:17:37;4.50;;;4.10;;
6414;SDS011;3240;48.790;9.210;2023-05-16T08:20:05;5.20;;;4.50;;
6414;SDS011;3240;48.790;9.210;2023-05-16T08:22:34;5.00;;;4.30;;
6414;SDS011;3240;48.790;9.210;2023-05-16T08:25:02;5.00;;;4.20;;
6414;SDS011;3240;48.790;9.210;2023-05-16T08:27:31;6.37;;;5.40;;
6414;SDS011;3240;48.790;9.210;2023-05-16T08:29:59;6.50;;;4.90;;
6414;SDS011;3240;48.790;9.210;2023-05-16T08:32:27;4.97;;;3.50;;
6414;SDS011;3240;48.790;9.210;2023-05-16T08:34:56;4.20;;;3.80;;
6414;SDS011;3240;48.790;9.210;2023-05-16T08:37:24;4.00;;;3.60;;
6414;SDS011;3240;48.790;9.210;2023-05-16T08:39:52;4.83;;;4.00;;
6414;SDS011;3240;48.790;9.210;2023-05-16T08:42:21;5.93;;;5.00;;
6414;SDS011;3240;48.790;9.210;2023-05-16T08:44:49;4.50;;;4.10;;
6414;SDS011;3240;48.790;9.210;2023-05-16T08:47:18;4.43;;;4.03;;
6414;SDS011;3240;48.790;9.210;2023-05-16T08:49:47;6.77;;;4.87;;
6414;SDS011;3240;48.790;9.210;2023-05-16T08:52:17;5.20;;;4.63;;
6414;SDS011;3240;48.790;9.210;2023-05-16T08:54:43;3.93;;;3.60;;
6414;SDS011;3240;48.790;9.210;2023-05-16T08:57:12;6.40;;;5.40;;
6414;SDS011;3240;48.790;9.210;2023-05-16T08:59:40;4.10;;;3.70;;
6414;SDS011;3240;48.790;9.210;2023-05-16T09:02:08;4.27;;;3.80;;
6414;SDS011;3240;48.790;9.210;2023-05-16T09:04:37;4.90;;;4.30;;
6414;SDS011;3240;48.790;9.210;2023-05-16T09:07:05;4.80;;;4.40;;
6414;SDS011;3240;48.790;9.210;2023-05-16T09:09:33;4.00;;;3.53;;
6414;SDS011;3240;48.790;9.210;2023-05-16T09:12:01;3.60;;;3.30;;
6414;SDS011;3240;48.790;9.210;2023-05-16T09:14:30;3.67;;;3.20;;
6414;SDS011;3240;48.790;9.210;2023-05-16T09:17:04;6.70;;;5.37;;
6414;SDS011;3240;48.790;9.210;2023-05-16T09:19:40;4.20;;;3.80;;
6414;SDS011;3240;48.790;9.210;2023-05-16T09:22:10;3.80;;;3.50;;
6414;SDS011;3240;48.790;9.210;2023-05-16T09:24:39;5.10;;;3.30;;
6414;SDS011;3240;48.790;9.210;2023-05-16T09:27:08;4.50;;;3.67;;
6414;SDS011;3240;48.790;9.210;2023-05-16T09:29:36;3.57;;;3.27;;
6414;SDS011;3240;48.790;9.210;2023-05-16T09:32:08;6.23;;;5.63;;
6414;SDS011;3240;48.790;9.210;2023-05-16T09:34:36;4.33;;;3.93;;
6414;SDS011;3240;48.790;9.210;2023-05-16T09:37:00;4.00;;;3.53;;
6414;SDS011;3240;48.790;9.210;2023-05-16T09:39:29;3.40;;;3.10;;
6414;SDS011;3240;48.790;9.210;2023-05-16T09:41:58;3.70;;;3.20;;
6414;SDS011;3240;48.790;9.210;2023-05-16T09:44:25;3.90;;;3.60;;
6414;SDS011;3240;48.790;9.210;2023-05-16T09:46:54;4.67;;;4.20;;
6414;SDS011;3240;48.790;9.210;2023-05-16T09:49:22;3.57;;;3.13;;
6414;SDS011;3240;48.790;9.210;2023-05-16T09:51:50;3.90;;;3.47;;
6414;SDS011;3240;48.790;9.210;2023-05-16T09:54:28;4.60;;;4.10;;
6414;SDS011;3240;48.790;9.210;2023-05-16T09:56:57;4.30;;;3.90;;
6414;SDS011;3240;48.790;9.210;2023-05-16T09:59:27;3.70;;;3.33;;
6414;SDS011;3240;48.790;9.210;2023-05-16T10:01:56;5.33;;;3.50;;
6414;SDS011;3240;48.790;9.210;2023-05-16T10:04:24;4.43;;;3.40;;
6414;SDS011;3240;48.790;9.210;2023-05-16T10:06:53;3.75;;;3.35;;
6414;SDS011;3240;48.790;9.210;2023-05-16T10:09:20;3.90;;;3.50;;
6414;SDS011;3240;48.790;9.210;2023-05-16T10:11:50;3.80;;;3.50;;
6414;SDS011;3240;48.790;9.210;2023-05-16T10:14:17;3.83;;;2.93;;
6414;SDS011;3240;48.790;9.210;2023-05-16T10:16:46;4.10;;;3.13;;
6414;SDS011;3240;48.790;9.210;2023-05-16T10:19:16;5.03;;;4.53;;
6414;SDS011;3240;48.790;9.210;2023-05-16T10:21:45;2.80;;;2.60;;
6414;SDS011;3240;48.790;9.210;2023-05-16T10:24:12;3.40;;;3.10;;
6414;SDS011;3240;48.790;9.210;2023-05-16T10:26:40;6.70;;;5.67;;
6414;SDS011;3240;48.790;9.210;2023-05-16T10:29:09;4.57;;;3.10;;
6414;SDS011;3240;48.790;9.210;2023-05-16T10:31:37;5.80;;;4.83;;
6414;SDS011;3240;48.790;9.210;2023-05-16T10:34:05;7.03;;;5.60;;
6414;SDS011;3240;48.790;9.210;2023-05-16T10:36:34;3.50;;;3.20;;
6414;SDS011;3240;48.790;9.210;2023-05-16T10:39:02;5.40;;;4.53;;
6414;SDS011;3240;48.790;9.210;2023-05-16T10:41:31;7.57;;;6.25;;
6414;SDS011;3240;48.790;9.210;2023-05-16T10:43:59;4.23;;;3.83;;
6414;SDS011;3240;48.790;9.210;2023-05-16T10:46:27;4.03;;;3.60;;
6414;SDS011;3240;48.790;9.210;2023-05-16T10:48:56;4.97;;;4.05;;
6414;SDS011;3240;48.790;9.210;2023-05-16T10:51:32;4.13;;;3.73;;
6414;SDS011;3240;48.790;9.210;2023-05-16T10:54:03;3.53;;;3.03;;
6414;SDS011;3240;48.790;9.210;2023-05-16T10:56:25;3.47;;;3.13;;
6414;SDS011;3240;48.790;9.210;2023-05-16T10:58:53;3.10;;;2.80;;
6414;SDS011;3240;48.790;9.210;2023-05-16T11:01:22;4.90;;;4.00;;
6414;SDS011;3240;48.790;9.210;2023-05-16T11:06:38;4.90;;;3.80;;
6414;SDS011;3240;48.790;9.210;2023-05-16T11:09:11;6.27;;;4.70;;
6414;SDS011;3240;48.790;9.210;2023-05-16T11:11:39;7.87;;;5.83;;
6414;SDS011;3240;48.790;9.210;2023-05-16T11:14:07;4.17;;;3.70;;
6414;SDS011;3240;48.790;9.210;2023-05-16T11:16:35;6.00;;;3.60;;
6414;SDS011;3240;48.790;9.210;2023-05-16T11:19:04;4.17;;;3.63;;
6414;SDS011;3240;48.790;9.210;2023-05-16T11:26:40;6.67;;;3.07;;
6414;SDS011;3240;48.790;9.210;2023-05-16T11:29:08;4.70;;;4.10;;
6414;SDS011;3240;48.790;9.210;2023-05-16T11:31:37;5.50;;;4.90;;
6414;SDS011;3240;48.790;9.210;2023-05-16T11:34:05;5.10;;;4.60;;
6414;SDS011;3240;48.790;9.210;2023-05-16T11:36:33;4.00;;;3.60;;
6414;SDS011;3240;48.790;9.210;2023-05-16T11:39:06;4.27;;;3.53;;
6414;SDS011;3240;48.790;9.210;2023-05-16T11:41:34;3.90;;;3.40;;
6414;SDS011;3240;48.790;9.210;2023-05-16T11:44:02;3.97;;;3.57;;
6414;SDS011;3240;48.790;9.210;2023-05-16T11:46:32;4.30;;;3.90;;
6414;SDS011;3240;48.790;9.210;2023-05-16T11:48:59;3.80;;;3.50;;
6414;SDS011;3240;48.790;9.210;2023-05-16T11:51:27;5.80;;;3.90;;
6414;SDS011;3240;48.790;9.210;2023-05-16T11:53:56;4.13;;;3.73;;
6414;SDS011;3240;48.790;9.210;2023-05-16T11:56:24;4.00;;;3.47;;
6414;SDS011;3240;48.790;9.210;2023-05-16T11:58:52;3.70;;;3.00;;
6414;SDS011;3240;48.790;9.210;2023-05-16T12:01:21;4.13;;;3.20;;
6414;SDS011;3240;48.790;9.210;2023-05-16T12:03:54;4.20;;;3.80;;
6414;SDS011;3240;48.790;9.210;2023-05-16T12:06:22;4.20;;;3.90;;
6414;SDS011;3240;48.790;9.210;2023-05-16T12:08:51;4.00;;;3.60;;
6414;SDS011;3240;48.790;9.210;2023-05-16T12:11:19;3.40;;;3.10;;
6414;SDS011;3240;48.790;9.210;2023-05-16T12:13:47;4.73;;;3.90;;
6414;SDS011;3240;48.790;9.210;2023-05-16T12:16:15;3.60;;;3.23;;
6414;SDS011;3240;48.790;9.210;2023-05-16T12:18:44;5.07;;;3.50;;
6414;SDS011;3240;48.790;9.210;2023-05-16T12:21:12;5.23;;;3.60;;
6414;SDS011;3240;48.790;9.210;2023-05-16T12:23:41;3.60;;;3.30;;
6414;SDS011;3240;48.790;9.210;2023-05-16T12:26:09;4.53;;;3.83;;
6414;SDS011;3240;48.790;9.210;2023-05-16T12:28:37;6.73;;;3.90;;
6414;SDS011;3240;48.790;9.210;2023-05-16T12:31:10;3.87;;;3.47;;
6414;SDS011;3240;48.790;9.210;2023-05-16T12:33:35;3.60;;;3.30;;
6414;SDS011;3240;48.790;9.210;2023-05-16T12:36:02;4.17;;;3.50;;
6414;SDS011;3240;48.790;9.210;2023-05-16T12:38:30;5.43;;;3.30;;
6414;SDS011;3240;48.790;9.210;2023-05-16T12:40:59;4.87;;;3.63;;
6414;SDS011;3240;48.790;9.210;2023-05-16T12:43:27;3.43;;;3.13;;
6414;SDS011;3240;48.790;9.210;2023-05-16T12:45:56;4.03;;;3.30;;
6414;SDS011;3240;48.790;9.210;2023-05-16T12:48:30;4.20;;;3.70;;
6414;SDS011;3240;48.790;9.210;2023-05-16T12:50:52;3.30;;;2.87;;
6414;SDS011;3240;48.790;9.210;2023-05-16T12:53:20;3.30;;;3.00;;
6414;SDS011;3240;48.790;9.210;2023-05-16T12:55:49;3.73;;;3.33;;
6414;SDS011;3240;48.790;9.210;2023-05-16T12:58:17;6.10;;;3.33;;
6414;SDS011;3240;48.790;9.210;2023-05-16T13:00:45;3.50;;;3.20;;
6414;SDS011;3240;48.790;9.210;2023-05-16T13:03:14;3.30;;;2.93;;
6414;SDS011;3240;48.790;9.210;2023-05-16T13:05:42;3.70;;;3.27;;
6414;SDS011;3240;48.790;9.210;2023-05-16T13:08:10;4.00;;;3.60;;
6414;SDS011;3240;48.790;9.210;2023-05-16T13:10:39;3.80;;;3.20;;
6414;SDS011;3240;48.790;9.210;2023-05-16T13:13:07;4.17;;;3.67;;
6414;SDS011;3240;48.790;9.210;2023-05-16T13:15:35;5.13;;;3.43;;
6414;SDS011;3240;48.790;9.210;2023-05-16T13:18:04;3.53;;;2.90;;
6414;SDS011;3240;48.790;9.210;2023-05-16T13:20:32;3.23;;;2.93;;
6414;SDS011;3240;48.790;9.210;2023-05-16T13:23:00;3.43;;;3.13;;
6414;SDS011;3240;48.790;9.210;2023-05-16T13:25:29;3.80;;;3.27;;
6414;SDS011;3240;48.790;9.210;2023-05-16T13:27:57;3.17;;;2.87;;
6414;SDS011;3240;48.790;9.210;2023-05-16T13:30:25;2.73;;;2.47;;
6414;SDS011;3240;48.790;9.210;2023-05-16T13:32:54;4.17;;;3.13;;
6414;SDS011;3240;48.790;9.210;2023-05-16T13:35:22;3.30;;;3.00;;
6414;SDS011;3240;48.790;9.210;2023-05-16T13:37:50;3.00;;;2.70;;
6414;SDS011;3240;48.790;9.210;2023-05-16T13:40:19;3.50;;;3.20;;
6414;SDS011;3240;48.790;9.210;2023-05-16T13:42:47;3.13;;;2.83;;
6414;SDS011;3240;48.790;9.210;2023-05-16T13:45:15;3.43;;;3.10;;
6414;SDS011;3240;48.790;9.210;2023-05-16T13:47:44;3.20;;;2.90;;
6414;SDS011;3240;48.790;9.210;2023-05-16T13:50:12;3.07;;;2.77;;
6414;SDS011;3240;48.790;9.210;2023-05-16T13:52:40;4.90;;;3.37;;
6414;SDS011;3240;48.790;9.210;2023-05-16T13:55:09;5.33;;;3.10;;
6414;SDS011;3240;48.790;9.210;2023-05-16T13:57:37;3.30;;;2.93;;
6414;SDS011;3240;48.790;9.210;2023-05-16T14:00:06;3.33;;;2.60;;
6414;SDS011;3240;48.790;9.210;2023-05-16T14:02:35;3.87;;;3.27;;
6414;SDS011;3240;48.790;9.210;2023-05-16T14:05:03;3.30;;;3.00;;
6414;SDS011;3240;48.790;9.210;2023-05-16T14:07:31;3.20;;;2.90;;
6414;SDS011;3240;48.790;9.210;2023-05-16T14:10:00;2.60;;;2.40;;
6414;SDS011;3240;48.790;9.210;2023-05-16T14:12:28;5.33;;;3.30;;
6414;SDS011;3240;48.790;9.210;2023-05-16T14:14:56;3.50;;;2.73;;
6414;SDS011;3240;48.790;9.210;2023-05-16T14:17:25;2.75;;;2.55;;
6414;SDS011;3240;48.790;9.210;2023-05-16T14:19:53;2.67;;;2.47;;
6414;SDS011;3240;48.790;9.210;2023-05-16T14:22:21;2.60;;;2.33;;
6414;SDS011;3240;48.790;9.210;2023-05-16T14:24:50;4.60;;;2.37;;
6414;SDS011;3240;48.790;9.210;2023-05-16T14:27:18;3.30;;;2.87;;
6414;SDS011;3240;48.790;9.210;2023-05-16T14:29:46;3.67;;;2.60;;
6414;SDS011;3240;48.790;9.210;2023-05-16T14:32:15;2.87;;;2.60;;
6414;SDS011;3240;48.790;9.210;2023-05-16T14:34:43;3.13;;;2.70;;
6414;SDS011;3240;48.790;9.210;2023-05-16T14:37:11;4.43;;;3.00;;
6414;SDS011;3240;48.790;9.210;2023-05-16T14:39:40;3.63;;;3.27;;
6414;SDS011;3240;48.790;9.210;2023-05-16T14:42:08;5.30;;;2.90;;
6414;SDS011;3240;48.790;9.210;2023-05-16T14:44:37;3.80;;;3.37;;
6414;SDS011;3240;48.790;9.210;2023-05-16T14:47:05;3.00;;;2.70;;
6414;SDS011;3240;48.790;9.210;2023-05-16T14:49:33;3.08;;;2.70;;
6414;SDS011;3240;48.790;9.210;2023-05-16T14:52:01;3.07;;;2.77;;
6414;SDS011;3240;48.790;9.210;2023-05-16T14:54:30;2.87;;;2.60;;
6414;SDS011;3240;48.790;9.210;2023-05-16T14:56:58;3.13;;;2.43;;
6414;SDS011;3240;48.790;9.210;2023-05-16T14:59:26;3.00;;;2.50;;
6414;SDS011;3240;48.790;9.210;2023-05-16T15:01:55;2.90;;;2.40;;
6414;SDS011;3240;48.790;9.210;2023-05-16T15:04:23;4.13;;;2.80;;
6414;SDS011;3240;48.790;9.210;2023-05-16T15:06:51;2.67;;;2.47;;
6414;SDS011;3240;48.790;9.210;2023-05-16T15:09:20;2.77;;;2.00;;
6414;SDS011;3240;48.790;9.210;2023-05-16T15:11:48;2.50;;;2.30;;
6414;SDS011;3240;48.790;9.210;2023-05-16T15:14:16;2.90;;;2.40;;
6414;SDS011;3240;48.790;9.210;2023-05-16T15:16:45;2.60;;;2.40;;
6414;SDS011;3240;48.790;9.210;2023-05-16T15:19:13;3.23;;;2.30;;
6414;SDS011;3240;48.790;9.210;2023-05-16T15:21:41;2.33;;;2.03;;
6414;SDS011;3240;48.790;9.210;2023-05-16T15:24:10;2.50;;;2.30;;
6414;SDS011;3240;48.790;9.210;2023-05-16T15:26:38;3.50;;;2.37;;
6414;SDS011;3240;48.790;9.210;2023-05-16T15:29:06;2.33;;;1.90;;
6414;SDS011;3240;48.790;9.210;2023-05-16T15:31:35;2.50;;;2.10;;
6414;SDS011;3240;48.790;9.210;2023-05-16T15:34:03;2.23;;;2.03;;
6414;SDS011;3240;48.790;9.210;2023-05-16T15:36:31;2.20;;;2.00;;
6414;SDS011;3240;48.790;9.210;2023-05-16T15:39:00;2.90;;;2.37;;